createdAt,value
2018-05-08T00:00:09.818Z,9.90
2018-05-08T00:01:09.815Z,9.80
2018-05-08T00:02:09.811Z,10.10
2018-05-08T00:03:09.810Z,9.40
2018-05-08T00:04:09.820Z,9.40
2018-05-08T00:05:09.812Z,9.50
2018-05-08T00:06:09.807Z,10.10
2018-05-08T00:07:09.806Z,9.90
2018-05-08T00:08:09.805Z,9.60
2018-05-08T00:09:09.803Z,9.50
2018-05-08T00:10:09.806Z,9.40
2018-05-08T00:11:09.806Z,9.50
2018-05-08T00:12:09.805Z,9.60
2018-05-08T00:13:09.803Z,9.50
2018-05-08T00:14:09.798Z,9.50
2018-05-08T00:15:09.796Z,9.70
2018-05-08T00:16:09.796Z,9.70
2018-05-08T00:17:09.793Z,9.50
2018-05-08T00:18:09.796Z,9.60
2018-05-08T00:19:09.795Z,9.40
2018-05-08T00:20:09.791Z,9.70
2018-05-08T00:21:09.793Z,9.30
2018-05-08T00:22:09.791Z,10.20
2018-05-08T00:23:09.790Z,11.10
2018-05-08T00:24:09.790Z,10.00
2018-05-08T00:25:09.788Z,10.40
2018-05-08T00:26:09.785Z,9.90
2018-05-08T00:27:09.780Z,9.80
2018-05-08T00:28:09.779Z,9.90
2018-05-08T00:29:09.778Z,10.30
2018-05-08T00:30:09.781Z,10.20
2018-05-08T00:31:09.779Z,10.40
2018-05-08T00:32:09.777Z,10.60
2018-05-08T00:33:09.804Z,10.20
2018-05-08T00:34:09.769Z,10.50
2018-05-08T00:35:09.770Z,11.40
2018-05-08T00:36:09.771Z,9.80
2018-05-08T00:37:09.769Z,10.60
2018-05-08T00:38:09.764Z,10.50
2018-05-08T00:39:09.762Z,10.40
2018-05-08T00:40:09.762Z,10.50
2018-05-08T00:41:09.761Z,10.20
2018-05-08T00:42:09.761Z,11.50
2018-05-08T00:43:09.761Z,11.00
2018-05-08T00:44:09.758Z,10.60
2018-05-08T00:45:09.756Z,10.60
2018-05-08T00:46:09.751Z,10.50
2018-05-08T00:47:09.750Z,10.50
2018-05-08T00:48:09.747Z,10.50
2018-05-08T00:49:09.745Z,10.70
2018-05-08T00:50:09.751Z,10.10
2018-05-08T00:51:09.749Z,10.40
2018-05-08T00:52:09.744Z,9.80
2018-05-08T00:53:09.737Z,10.60
2018-05-08T00:54:09.741Z,10.30
2018-05-08T00:55:09.745Z,10.10
2018-05-08T00:56:09.737Z,10.20
2018-05-08T00:57:09.735Z,10.40
2018-05-08T00:58:09.729Z,11.20
2018-05-08T00:59:09.727Z,10.50
2018-05-08T01:00:09.726Z,9.90
2018-05-08T01:01:09.723Z,9.80
2018-05-08T01:02:09.726Z,10.10
2018-05-08T01:03:09.724Z,9.90
2018-05-08T01:04:09.724Z,10.80
2018-05-08T01:05:09.721Z,10.20
2018-05-08T01:06:09.715Z,10.00
2018-05-08T01:07:09.714Z,10.00
2018-05-08T01:08:09.718Z,9.90
2018-05-08T01:09:09.714Z,9.50
2018-05-08T01:10:09.708Z,9.60
2018-05-08T01:11:09.705Z,9.80
2018-05-08T01:12:09.706Z,9.80
2018-05-08T01:13:09.700Z,9.90
2018-05-08T01:14:09.703Z,9.90
2018-05-08T01:15:09.701Z,9.50
2018-05-08T01:16:09.702Z,9.70
2018-05-08T01:17:09.794Z,9.50
2018-05-08T01:18:09.693Z,9.80
2018-05-08T01:19:09.691Z,9.60
2018-05-08T01:20:09.689Z,10.10
2018-05-08T01:21:09.685Z,10.70
2018-05-08T01:22:09.689Z,10.20
2018-05-08T01:23:09.687Z,9.80
2018-05-08T01:24:09.680Z,9.30
2018-05-08T01:25:09.677Z,9.90
2018-05-08T01:26:09.681Z,9.80
2018-05-08T01:27:09.682Z,9.70
2018-05-08T01:28:09.676Z,10.50
2018-05-08T01:29:09.673Z,9.20
2018-05-08T01:30:09.667Z,10.80
2018-05-08T01:31:09.666Z,9.80
2018-05-08T01:32:09.663Z,9.60
2018-05-08T01:33:09.660Z,9.80
2018-05-08T01:34:09.663Z,9.60
2018-05-08T01:35:09.661Z,10.00
2018-05-08T01:36:09.660Z,9.70
2018-05-08T01:37:09.656Z,10.20
2018-05-08T01:38:09.649Z,9.50
2018-05-08T01:39:09.650Z,9.50
2018-05-08T01:40:09.658Z,9.80
2018-05-08T01:41:09.647Z,10.00
2018-05-08T01:42:09.644Z,9.80
2018-05-08T01:43:09.653Z,10.00
2018-05-08T01:44:09.636Z,10.10
2018-05-08T01:45:09.633Z,10.50
2018-05-08T01:46:09.636Z,10.00
2018-05-08T01:47:09.633Z,9.80
2018-05-08T01:48:09.633Z,10.10
2018-05-08T01:49:09.632Z,10.20
2018-05-08T01:50:09.621Z,10.40
2018-05-08T01:51:09.621Z,9.90
2018-05-08T01:52:09.618Z,10.20
2018-05-08T01:53:09.617Z,10.00
2018-05-08T01:54:09.616Z,9.60
2018-05-08T01:55:09.614Z,10.20
2018-05-08T01:56:09.608Z,9.90
2018-05-08T01:57:09.606Z,10.30
2018-05-08T01:58:09.607Z,10.30
2018-05-08T01:59:09.604Z,10.20
2018-05-08T02:00:09.605Z,10.30
2018-05-08T02:01:09.601Z,9.90
2018-05-08T02:02:09.593Z,9.80
2018-05-08T02:03:09.590Z,9.80
2018-05-08T02:04:09.589Z,10.10
2018-05-08T02:05:09.585Z,10.30
2018-05-08T02:06:09.588Z,10.50
2018-05-08T02:07:09.585Z,10.50
2018-05-08T02:08:09.583Z,10.30
2018-05-08T02:09:09.583Z,10.20
2018-05-08T02:10:09.573Z,10.60
2018-05-08T02:11:09.570Z,9.60
2018-05-08T02:12:09.573Z,9.90
2018-05-08T02:13:09.568Z,10.30
2018-05-08T02:14:09.565Z,10.00
2018-05-08T02:15:09.560Z,10.00
2018-05-08T02:16:09.558Z,10.10
2018-05-08T02:17:09.556Z,9.80
2018-05-08T02:18:09.557Z,9.90
2018-05-08T02:19:09.555Z,10.00
2018-05-08T02:20:09.552Z,10.00
2018-05-08T02:21:09.551Z,9.90
2018-05-08T02:22:09.540Z,10.00
2018-05-08T02:23:09.538Z,10.30
2018-05-08T02:24:09.537Z,9.90
2018-05-08T02:25:09.532Z,10.20
2018-05-08T02:26:09.533Z,10.90
2018-05-08T02:27:09.531Z,9.70
2018-05-08T02:28:09.524Z,9.30
2018-05-08T02:29:09.520Z,9.60
2018-05-08T02:30:09.522Z,9.30
2018-05-08T02:31:09.519Z,9.60
2018-05-08T02:32:09.518Z,9.20
2018-05-08T02:33:09.515Z,9.30
2018-05-08T02:34:09.507Z,9.50
2018-05-08T02:35:09.504Z,9.00
2018-05-08T02:36:09.503Z,9.30
2018-05-08T02:37:09.500Z,9.20
2018-05-08T02:38:09.499Z,9.80
2018-05-08T02:39:09.500Z,9.50
2018-05-08T02:40:09.493Z,9.00
2018-05-08T02:41:09.489Z,10.20
2018-05-08T02:42:09.485Z,9.40
2018-05-08T02:43:09.480Z,10.00
2018-05-08T02:44:09.482Z,9.70
2018-05-08T02:45:09.479Z,9.50
2018-05-08T02:46:09.471Z,9.70
2018-05-08T02:47:09.471Z,9.70
2018-05-08T02:48:09.465Z,9.60
2018-05-08T02:49:09.463Z,9.40
2018-05-08T02:50:09.463Z,9.80
2018-05-08T02:51:09.462Z,10.20
2018-05-08T02:52:09.454Z,9.00
2018-05-08T02:53:09.448Z,10.00
2018-05-08T02:54:09.452Z,10.00
2018-05-08T02:55:09.449Z,9.40
2018-05-08T02:56:09.450Z,9.10
2018-05-08T02:57:09.444Z,9.50
2018-05-08T02:58:09.436Z,9.70
2018-05-08T02:59:09.434Z,9.60
2018-05-08T03:00:09.435Z,9.00
2018-05-08T03:01:09.437Z,9.90
2018-05-08T03:02:09.423Z,10.00
2018-05-08T03:03:09.420Z,10.40
2018-05-08T03:04:09.417Z,9.70
2018-05-08T03:05:09.415Z,9.60
2018-05-08T03:06:09.414Z,9.70
2018-05-08T03:07:09.412Z,9.50
2018-05-08T03:08:09.408Z,9.70
2018-05-08T03:09:09.405Z,9.60
2018-05-08T03:10:09.398Z,9.20
2018-05-08T03:11:09.394Z,9.80
2018-05-08T03:12:09.392Z,9.60
2018-05-08T03:13:09.392Z,9.60
2018-05-08T03:14:09.391Z,9.40
2018-05-08T03:15:09.387Z,9.80
2018-05-08T03:16:09.378Z,9.30
2018-05-08T03:17:09.374Z,9.60
2018-05-08T03:18:09.376Z,9.50
2018-05-08T03:19:09.374Z,9.40
2018-05-08T03:20:09.370Z,9.60
2018-05-08T03:21:09.371Z,9.90
2018-05-08T03:22:09.363Z,9.90
2018-05-08T03:23:09.355Z,9.30
2018-05-08T03:24:09.354Z,9.40
2018-05-08T03:25:09.348Z,9.40
2018-05-08T03:26:09.349Z,9.20
2018-05-08T03:27:09.347Z,9.30
2018-05-08T03:28:09.345Z,9.40
2018-05-08T03:29:09.341Z,10.10
2018-05-08T03:30:09.332Z,9.40
2018-05-08T03:31:09.329Z,9.70
2018-05-08T03:32:09.332Z,9.50
2018-05-08T03:33:09.326Z,9.40
2018-05-08T03:34:09.320Z,9.60
2018-05-08T03:35:09.316Z,9.70
2018-05-08T03:36:09.312Z,9.40
2018-05-08T03:37:09.325Z,9.70
2018-05-08T03:38:09.309Z,9.90
2018-05-08T03:39:09.306Z,9.80
2018-05-08T03:40:09.304Z,9.60
2018-05-08T03:41:09.299Z,9.80
2018-05-08T03:42:09.291Z,10.10
2018-05-08T03:43:09.288Z,10.00
2018-05-08T03:44:09.288Z,10.10
2018-05-08T03:45:09.281Z,9.50
2018-05-08T03:46:09.282Z,10.00
2018-05-08T03:47:09.280Z,9.80
2018-05-08T03:48:09.270Z,10.00
2018-05-08T03:49:09.268Z,10.40
2018-05-08T03:50:09.274Z,10.10
2018-05-08T03:51:09.266Z,9.70
2018-05-08T03:52:09.260Z,10.50
2018-05-08T03:53:09.258Z,9.80
2018-05-08T03:54:09.250Z,9.90
2018-05-08T03:55:09.244Z,10.20
2018-05-08T03:56:09.242Z,10.70
2018-05-08T03:57:09.239Z,10.00
2018-05-08T03:58:09.240Z,10.00
2018-05-08T03:59:09.236Z,10.00
2018-05-08T04:00:09.231Z,10.20
2018-05-08T04:01:09.228Z,10.10
2018-05-08T04:02:09.220Z,10.20
2018-05-08T04:03:09.216Z,10.90
2018-05-08T04:04:09.218Z,10.30
2018-05-08T04:05:09.213Z,9.90
2018-05-08T04:06:09.205Z,10.50
2018-05-08T04:07:09.202Z,11.40
2018-05-08T04:08:09.199Z,10.50
2018-05-08T04:09:09.194Z,10.70
2018-05-08T04:10:09.275Z,10.40
2018-05-08T04:11:09.194Z,10.60
2018-05-08T04:12:09.189Z,10.40
2018-05-08T04:13:09.185Z,10.50
2018-05-08T04:14:09.176Z,10.40
2018-05-08T04:15:09.179Z,10.90
2018-05-08T04:16:09.169Z,10.40
2018-05-08T04:17:09.165Z,10.20
2018-05-08T04:18:09.167Z,10.20
2018-05-08T04:19:09.162Z,9.60
2018-05-08T04:20:09.153Z,10.10
2018-05-08T04:21:09.217Z,10.20
2018-05-08T04:22:09.150Z,10.30
2018-05-08T04:23:09.152Z,10.10
2018-05-08T04:24:09.144Z,10.20
2018-05-08T04:25:09.139Z,10.70
2018-05-08T04:26:09.132Z,11.30
2018-05-08T04:27:09.128Z,10.40
2018-05-08T04:28:09.129Z,10.70
2018-05-08T04:29:09.120Z,10.90
2018-05-08T04:30:09.121Z,10.40
2018-05-08T04:31:09.118Z,10.60
2018-05-08T04:32:09.115Z,10.10
2018-05-08T04:33:09.110Z,11.00
2018-05-08T04:34:09.108Z,10.90
2018-05-08T04:35:09.099Z,10.80
2018-05-08T04:36:09.100Z,10.70
2018-05-08T04:37:09.096Z,10.60
2018-05-08T04:38:09.088Z,10.50
2018-05-08T04:39:09.087Z,10.80
2018-05-08T04:40:09.082Z,10.60
2018-05-08T04:41:09.078Z,10.40
2018-05-08T04:42:09.081Z,10.70
2018-05-08T04:43:09.078Z,10.70
2018-05-08T04:44:09.075Z,10.90
2018-05-08T04:45:09.072Z,10.80
2018-05-08T04:46:09.065Z,11.20
2018-05-08T04:47:09.064Z,11.00
2018-05-08T04:48:09.067Z,11.20
2018-05-08T04:49:09.059Z,11.10
2018-05-08T04:50:09.061Z,11.50
2018-05-08T04:51:09.061Z,11.00
2018-05-08T04:52:09.056Z,11.20
2018-05-08T04:53:09.053Z,11.20
2018-05-08T04:54:09.057Z,10.80
2018-05-08T04:55:09.056Z,11.00
2018-05-08T04:56:09.057Z,10.70
2018-05-08T04:57:09.055Z,10.60
2018-05-08T04:58:09.050Z,11.70
2018-05-08T04:59:09.051Z,11.50
2018-05-08T05:00:09.050Z,11.70
2018-05-08T05:01:09.049Z,11.00
2018-05-08T05:02:09.055Z,11.10
2018-05-08T05:03:09.055Z,11.40
2018-05-08T05:04:09.058Z,11.50
2018-05-08T05:05:09.058Z,11.20
2018-05-08T05:06:09.054Z,11.60
2018-05-08T05:07:09.055Z,11.60
2018-05-08T05:08:09.062Z,12.20
2018-05-08T05:09:09.069Z,11.90
2018-05-08T05:10:09.059Z,11.70
2018-05-08T05:11:09.082Z,12.20
2018-05-08T05:12:09.064Z,12.50
2018-05-08T05:13:09.065Z,16.80
2018-05-08T05:14:09.072Z,22.70
2018-05-08T05:15:09.074Z,24.40
2018-05-08T05:16:09.077Z,25.30
2018-05-08T05:17:09.079Z,22.70
2018-05-08T05:18:09.082Z,21.50
2018-05-08T05:19:09.081Z,25.60
2018-05-08T05:20:09.086Z,27.80
2018-05-08T05:21:09.088Z,26.00
2018-05-08T05:22:09.096Z,26.20
2018-05-08T05:23:09.100Z,31.90
2018-05-08T05:24:09.099Z,85.30
2018-05-08T05:25:09.103Z,180.40
2018-05-08T05:26:09.115Z,100.50
2018-05-08T05:27:09.115Z,28.60
2018-05-08T05:28:09.119Z,14.50
2018-05-08T05:29:09.123Z,13.30
2018-05-08T05:30:09.123Z,12.70
2018-05-08T05:31:09.128Z,12.00
2018-05-08T05:32:09.133Z,11.50
2018-05-08T05:33:09.137Z,11.60
2018-05-08T05:34:09.147Z,11.00
2018-05-08T05:35:09.153Z,10.70
2018-05-08T05:36:09.158Z,10.10
2018-05-08T05:37:09.163Z,9.10
2018-05-08T05:38:09.164Z,9.50
2018-05-08T05:39:09.170Z,10.50
2018-05-08T05:40:09.180Z,9.50
2018-05-08T05:41:09.186Z,9.10
2018-05-08T05:42:09.187Z,9.30
2018-05-08T05:43:09.198Z,9.20
2018-05-08T05:44:09.204Z,8.60
2018-05-08T05:45:09.206Z,8.80
2018-05-08T05:46:09.217Z,8.70
2018-05-08T05:47:09.224Z,9.30
2018-05-08T05:48:09.230Z,8.30
2018-05-08T05:49:09.239Z,8.40
2018-05-08T05:50:09.238Z,8.70
2018-05-08T05:51:09.246Z,8.70
2018-05-08T05:52:09.253Z,8.90
2018-05-08T05:53:09.261Z,8.40
2018-05-08T05:54:09.273Z,8.50
2018-05-08T05:55:09.280Z,8.10
2018-05-08T05:56:09.282Z,8.00
2018-05-08T05:57:09.293Z,8.40
2018-05-08T05:58:09.305Z,8.60
2018-05-08T05:59:09.311Z,8.10
2018-05-08T06:00:09.405Z,8.10
2018-05-08T06:01:09.325Z,7.70
2018-05-08T06:02:09.329Z,7.60
2018-05-08T06:03:09.339Z,9.20
2018-05-08T06:04:09.346Z,7.80
2018-05-08T06:05:09.354Z,8.50
2018-05-08T06:06:09.368Z,8.00
2018-05-08T06:07:09.378Z,8.20
2018-05-08T06:08:09.384Z,8.50
2018-05-08T06:09:09.398Z,7.80
2018-05-08T06:10:09.397Z,8.20
2018-05-08T06:11:09.406Z,8.10
2018-05-08T06:12:09.420Z,7.50
2018-05-08T06:13:09.429Z,7.50
2018-05-08T06:14:09.434Z,7.80
2018-05-08T06:15:09.443Z,7.10
2018-05-08T06:16:09.453Z,7.70
2018-05-08T06:17:09.462Z,7.10
2018-05-08T06:18:09.476Z,7.20
2018-05-08T06:19:09.488Z,7.30
2018-05-08T06:20:09.497Z,7.50
2018-05-08T06:21:09.506Z,6.90
2018-05-08T06:22:09.512Z,7.90
2018-05-08T06:23:09.523Z,7.90
2018-05-08T06:24:09.533Z,7.30
2018-05-08T06:25:09.543Z,6.50
2018-05-08T06:26:09.558Z,6.30
2018-05-08T06:27:09.569Z,5.80
2018-05-08T06:28:09.576Z,5.90
2018-05-08T06:29:09.586Z,6.50
2018-05-08T06:30:09.605Z,6.30
2018-05-08T06:31:09.630Z,6.70
2018-05-08T06:32:09.627Z,7.00
2018-05-08T06:33:09.635Z,6.20
2018-05-08T06:34:09.643Z,5.80
2018-05-08T06:35:09.653Z,6.20
2018-05-08T06:36:09.666Z,5.60
2018-05-08T06:37:09.677Z,6.30
2018-05-08T06:38:09.692Z,5.80
2018-05-08T06:39:09.704Z,5.20
2018-05-08T06:40:09.783Z,4.90
2018-05-08T06:41:09.728Z,5.70
2018-05-08T06:42:09.736Z,5.00
2018-05-08T06:43:09.748Z,5.50
2018-05-08T06:44:09.771Z,5.40
2018-05-08T06:45:09.777Z,5.00
2018-05-08T06:46:09.785Z,5.60
2018-05-08T06:47:09.799Z,4.70
2018-05-08T06:48:09.812Z,4.70
2018-05-08T06:49:09.825Z,5.10
2018-05-08T06:50:09.843Z,5.20
2018-05-08T06:51:09.855Z,6.00
2018-05-08T06:52:09.870Z,8.70
2018-05-08T06:53:09.883Z,15.90
2018-05-08T06:54:09.891Z,8.70
2018-05-08T06:55:09.904Z,8.10
2018-05-08T06:56:09.919Z,12.00
2018-05-08T06:57:09.932Z,34.40
2018-05-08T06:58:09.950Z,331.30
2018-05-08T06:59:09.966Z,415.30
2018-05-08T07:00:09.975Z,566.10
2018-05-08T07:01:09.992Z,681.90
2018-05-08T07:02:10.009Z,514.30
2018-05-08T07:03:10.023Z,521.80
2018-05-08T07:04:10.039Z,557.70
2018-05-08T07:05:10.051Z,662.50
2018-05-08T07:06:10.063Z,697.90
2018-05-08T07:07:10.077Z,61.90
2018-05-08T07:08:10.093Z,19.90
2018-05-08T07:09:10.111Z,44.90
2018-05-08T07:10:10.132Z,46.40
2018-05-08T07:11:10.147Z,87.10
2018-05-08T07:12:10.158Z,115.90
2018-05-08T07:13:10.173Z,157.80
2018-05-08T07:14:10.185Z,114.80
2018-05-08T07:15:10.202Z,85.80
2018-05-08T07:16:10.421Z,81.60
2018-05-08T07:17:10.237Z,309.60
2018-05-08T07:18:10.247Z,235.90
2018-05-08T07:19:10.264Z,391.90
2018-05-08T07:20:10.279Z,311.50
2018-05-08T07:21:10.296Z,309.80
2018-05-08T07:22:10.317Z,384.60
2018-05-08T07:23:10.336Z,360.30
2018-05-08T07:24:10.351Z,347.40
2018-05-08T07:25:10.365Z,226.30
2018-05-08T07:26:10.376Z,415.80
2018-05-08T07:27:10.394Z,430.30
2018-05-08T07:28:10.410Z,545.50
2018-05-08T07:29:10.429Z,174.50
2018-05-08T07:30:10.446Z,92.50
2018-05-08T07:31:10.465Z,63.00
2018-05-08T07:32:10.476Z,59.10
2018-05-08T07:33:10.492Z,85.10
2018-05-08T07:34:10.513Z,69.10
2018-05-08T07:35:10.571Z,69.20
2018-05-08T07:36:10.553Z,88.10
2018-05-08T07:37:10.563Z,112.50
2018-05-08T07:38:10.583Z,135.00
2018-05-08T07:39:10.593Z,112.40
2018-05-08T07:40:10.610Z,74.20
2018-05-08T07:41:10.626Z,53.40
2018-05-08T07:42:10.646Z,43.60
2018-05-08T07:43:10.673Z,39.50
2018-05-08T07:44:10.680Z,37.40
2018-05-08T07:45:10.694Z,42.40
2018-05-08T07:46:10.707Z,28.00
2018-05-08T07:47:10.723Z,12.90
2018-05-08T07:48:10.744Z,15.90
2018-05-08T07:49:10.760Z,17.00
2018-05-08T07:50:10.775Z,9.30
2018-05-08T07:51:10.788Z,81.00
2018-05-08T07:52:10.806Z,67.50
2018-05-08T07:53:10.821Z,82.50
2018-05-08T07:54:10.842Z,114.90
2018-05-08T07:55:10.858Z,114.00
2018-05-08T07:56:10.876Z,134.90
2018-05-08T07:57:10.897Z,175.00
2018-05-08T07:58:10.904Z,143.90
2018-05-08T07:59:10.923Z,212.60
2018-05-08T08:00:10.938Z,130.10
2018-05-08T08:01:10.955Z,159.70
2018-05-08T08:02:10.976Z,87.20
2018-05-08T08:03:10.993Z,76.00
2018-05-08T08:04:11.006Z,73.70
2018-05-08T08:05:11.024Z,46.10
2018-05-08T08:06:11.045Z,23.30
2018-05-08T08:07:11.063Z,8.50
2018-05-08T08:08:11.082Z,6.00
2018-05-08T08:09:11.102Z,4.00
2018-05-08T08:10:11.111Z,2.90
2018-05-08T08:11:11.136Z,3.80
2018-05-08T08:12:11.148Z,3.90
2018-05-08T08:13:11.165Z,5.20
2018-05-08T08:14:11.188Z,4.90
2018-05-08T08:15:11.214Z,4.20
2018-05-08T08:16:11.226Z,5.10
2018-05-08T08:17:11.244Z,4.30
2018-05-08T08:18:11.265Z,4.30
2018-05-08T08:19:11.277Z,17.50
2018-05-08T08:20:11.301Z,6.90
2018-05-08T08:21:11.320Z,9.10
2018-05-08T08:22:11.332Z,8.90
2018-05-08T08:23:11.353Z,4.70
2018-05-08T08:24:11.371Z,5.00
2018-05-08T08:25:11.389Z,3.00
2018-05-08T08:26:11.412Z,4.10
2018-05-08T08:27:11.433Z,3.10
2018-05-08T08:28:11.450Z,3.40
2018-05-08T08:29:11.467Z,2.60
2018-05-08T08:30:11.488Z,2.50
2018-05-08T08:31:11.499Z,2.30
2018-05-08T08:32:11.518Z,2.30
2018-05-08T08:33:11.536Z,2.20
2018-05-08T08:34:11.561Z,2.40
2018-05-08T08:35:11.577Z,2.50
2018-05-08T08:36:11.592Z,2.50
2018-05-08T08:37:11.611Z,2.80
2018-05-08T08:38:11.634Z,2.50
2018-05-08T08:39:11.653Z,2.50
2018-05-08T08:40:11.673Z,2.30
2018-05-08T08:41:11.690Z,2.40
2018-05-08T08:42:11.705Z,2.50
2018-05-08T08:43:11.725Z,2.30
2018-05-08T08:44:11.745Z,2.40
2018-05-08T08:45:11.764Z,2.30
2018-05-08T08:46:11.788Z,2.40
2018-05-08T08:47:11.808Z,2.30
2018-05-08T08:48:11.831Z,2.40
2018-05-08T08:49:11.849Z,2.40
2018-05-08T08:50:11.866Z,2.20
2018-05-08T08:51:11.892Z,2.50
2018-05-08T08:52:11.911Z,2.90
2018-05-08T08:53:11.936Z,2.60
2018-05-08T08:54:11.950Z,2.40
2018-05-08T08:55:11.968Z,2.40
2018-05-08T08:56:11.989Z,2.30
2018-05-08T08:57:12.009Z,2.40
2018-05-08T08:58:12.034Z,2.30
2018-05-08T08:59:12.054Z,2.40
2018-05-08T09:00:12.076Z,2.60
2018-05-08T09:01:12.095Z,2.80
2018-05-08T09:02:12.112Z,2.70
2018-05-08T09:03:12.133Z,2.50
2018-05-08T09:04:12.154Z,2.50
2018-05-08T09:05:12.174Z,2.30
2018-05-08T09:06:12.201Z,2.40
2018-05-08T09:07:12.221Z,2.90
2018-05-08T09:08:12.243Z,2.70
2018-05-08T09:09:12.257Z,2.80
2018-05-08T09:10:12.283Z,2.60
2018-05-08T09:11:12.351Z,2.70
2018-05-08T09:12:12.325Z,2.70
2018-05-08T09:13:12.351Z,2.70
2018-05-08T09:14:12.364Z,2.90
2018-05-08T09:15:12.384Z,2.90
2018-05-08T09:16:12.404Z,2.80
2018-05-08T09:17:12.425Z,2.80
2018-05-08T09:18:12.459Z,2.70
2018-05-08T09:19:12.472Z,2.60
2018-05-08T09:20:12.493Z,2.80
2018-05-08T09:21:12.513Z,2.70
2018-05-08T09:22:12.532Z,2.90
2018-05-08T09:23:12.552Z,3.00
2018-05-08T09:24:12.578Z,2.80
2018-05-08T09:25:12.598Z,2.80
2018-05-08T09:26:12.615Z,2.80
2018-05-08T09:27:12.635Z,2.70
2018-05-08T09:28:12.660Z,2.80
2018-05-08T09:29:12.683Z,2.70
2018-05-08T09:30:12.705Z,2.70
2018-05-08T09:31:12.724Z,2.60
2018-05-08T09:32:12.744Z,2.70
2018-05-08T09:33:12.765Z,2.90
2018-05-08T09:34:12.783Z,3.00
2018-05-08T09:35:12.801Z,3.00
2018-05-08T09:36:12.821Z,2.80
2018-05-08T09:37:12.841Z,2.80
2018-05-08T09:38:12.866Z,2.80
2018-05-08T09:39:12.888Z,2.80
2018-05-08T09:40:12.907Z,2.90
2018-05-08T09:41:12.924Z,2.90
2018-05-08T09:42:12.949Z,2.80
2018-05-08T09:43:12.969Z,2.90
2018-05-08T09:44:12.991Z,2.90
2018-05-08T09:45:13.012Z,2.70
2018-05-08T09:46:13.029Z,2.80
2018-05-08T09:47:13.049Z,2.70
2018-05-08T09:48:13.071Z,2.70
2018-05-08T09:49:13.152Z,3.30
2018-05-08T09:50:13.125Z,3.00
2018-05-08T09:51:13.135Z,3.10
2018-05-08T09:52:13.158Z,2.90
2018-05-08T09:53:13.175Z,2.60
2018-05-08T09:54:13.260Z,2.40
2018-05-08T09:55:13.212Z,2.90
2018-05-08T09:56:13.238Z,3.10
2018-05-08T09:57:13.256Z,2.90
2018-05-08T09:58:13.272Z,2.90
2018-05-08T09:59:13.300Z,3.10
2018-05-08T10:00:13.330Z,2.80
2018-05-08T10:01:13.332Z,3.10
2018-05-08T10:02:13.361Z,2.80
2018-05-08T10:03:13.379Z,3.20
2018-05-08T10:04:13.399Z,2.90
2018-05-08T10:05:13.420Z,2.80
2018-05-08T10:06:13.435Z,2.60
2018-05-08T10:07:13.455Z,3.10
2018-05-08T10:08:13.474Z,3.10
2018-05-08T10:09:13.497Z,3.00
2018-05-08T10:10:13.520Z,4.20
2018-05-08T10:11:13.538Z,2.90
2018-05-08T10:12:13.553Z,4.60
2018-05-08T10:13:13.571Z,4.80
2018-05-08T10:14:13.595Z,18.70
2018-05-08T10:15:13.615Z,4.70
2018-05-08T10:16:13.634Z,6.00
2018-05-08T10:17:13.650Z,5.10
2018-05-08T10:18:13.665Z,6.60
2018-05-08T10:19:13.686Z,5.50
2018-05-08T10:20:13.700Z,5.60
2018-05-08T10:21:13.718Z,5.30
2018-05-08T10:22:13.740Z,4.40
2018-05-08T10:23:13.759Z,4.80
2018-05-08T10:24:13.779Z,3.30
2018-05-08T10:25:13.796Z,4.40
2018-05-08T10:26:13.809Z,5.10
2018-05-08T10:27:13.828Z,4.30
2018-05-08T10:28:13.850Z,4.30
2018-05-08T10:29:13.868Z,4.50
2018-05-08T10:30:13.883Z,11.50
2018-05-08T10:31:13.906Z,5.50
2018-05-08T10:32:13.919Z,5.70
2018-05-08T10:33:13.937Z,7.20
2018-05-08T10:34:13.957Z,8.60
2018-05-08T10:35:13.975Z,7.80
2018-05-08T10:36:13.993Z,9.70
2018-05-08T10:37:14.014Z,9.00
2018-05-08T10:38:14.025Z,9.60
2018-05-08T10:39:14.046Z,16.90
2018-05-08T10:40:14.060Z,11.50
2018-05-08T10:41:14.077Z,14.30
2018-05-08T10:42:14.101Z,15.50
2018-05-08T10:43:14.118Z,17.20
2018-05-08T10:44:14.130Z,28.60
2018-05-08T10:45:14.147Z,26.20
2018-05-08T10:46:14.170Z,26.50
2018-05-08T10:47:14.187Z,39.10
2018-05-08T10:48:14.203Z,25.70
2018-05-08T10:49:14.219Z,27.00
2018-05-08T10:50:14.233Z,57.10
2018-05-08T10:51:14.250Z,41.20
2018-05-08T10:52:14.267Z,62.80
2018-05-08T10:53:14.283Z,43.60
2018-05-08T10:54:14.306Z,115.80
2018-05-08T10:55:14.321Z,89.00
2018-05-08T10:56:14.344Z,78.00
2018-05-08T10:57:14.357Z,105.60
2018-05-08T10:58:14.367Z,111.90
2018-05-08T10:59:14.387Z,161.50
2018-05-08T11:00:14.407Z,181.60
2018-05-08T11:01:14.422Z,129.00
2018-05-08T11:02:14.433Z,148.80
2018-05-08T11:03:14.451Z,254.40
2018-05-08T11:04:14.466Z,184.50
2018-05-08T11:05:14.482Z,289.10
2018-05-08T11:06:14.502Z,185.70
2018-05-08T11:07:14.520Z,212.30
2018-05-08T11:08:14.536Z,285.90
2018-05-08T11:09:14.552Z,282.10
2018-05-08T11:10:14.568Z,151.70
2018-05-08T11:11:14.581Z,115.30
2018-05-08T11:12:14.598Z,123.30
2018-05-08T11:13:14.613Z,209.50
2018-05-08T11:14:14.635Z,215.30
2018-05-08T11:15:14.652Z,185.50
2018-05-08T11:16:14.664Z,252.20
2018-05-08T11:17:14.678Z,267.50
2018-05-08T11:18:14.699Z,341.60
2018-05-08T11:19:14.725Z,325.90
2018-05-08T11:20:14.729Z,395.90
2018-05-08T11:21:14.744Z,466.80
2018-05-08T11:22:14.756Z,514.30
2018-05-08T11:23:14.774Z,506.30
2018-05-08T11:24:14.792Z,505.20
2018-05-08T11:25:14.803Z,587.50
2018-05-08T11:26:14.813Z,690.50
2018-05-08T11:27:14.897Z,721.10
2018-05-08T11:28:14.841Z,730.50
2018-05-08T11:29:14.853Z,419.70
2018-05-08T11:30:14.873Z,268.20
2018-05-08T11:31:14.884Z,91.00
2018-05-08T11:32:14.895Z,53.80
2018-05-08T11:33:14.905Z,29.10
2018-05-08T11:34:14.919Z,13.70
2018-05-08T11:35:14.933Z,12.70
2018-05-08T11:36:14.940Z,12.00
2018-05-08T11:37:14.957Z,11.40
2018-05-08T11:38:14.956Z,10.60
2018-05-08T11:39:15.036Z,11.30
2018-05-08T11:40:14.981Z,11.40
2018-05-08T11:41:14.985Z,10.80
2018-05-08T11:42:14.998Z,10.70
2018-05-08T11:43:15.007Z,10.60
2018-05-08T11:44:15.021Z,9.90
2018-05-08T11:45:15.026Z,10.50
2018-05-08T11:46:15.030Z,10.70
2018-05-08T11:47:15.037Z,11.10
2018-05-08T11:48:15.056Z,11.00
2018-05-08T11:49:15.060Z,11.00
2018-05-08T11:50:15.061Z,10.70
2018-05-08T11:51:15.071Z,10.90
2018-05-08T11:52:15.078Z,10.80
2018-05-08T11:53:15.085Z,11.40
2018-05-08T11:54:15.096Z,10.70
2018-05-08T11:55:15.104Z,10.60
2018-05-08T11:56:15.112Z,11.10
2018-05-08T11:57:15.119Z,10.80
2018-05-08T11:58:15.122Z,10.90
2018-05-08T11:59:15.129Z,10.70
2018-05-08T12:00:15.137Z,10.70
2018-05-08T12:01:15.143Z,10.50
2018-05-08T12:02:15.156Z,10.50
2018-05-08T12:03:15.162Z,10.40
2018-05-08T12:04:15.164Z,10.50
2018-05-08T12:05:15.172Z,10.40
2018-05-08T12:06:15.183Z,10.20
2018-05-08T12:07:15.194Z,10.30
2018-05-08T12:08:15.197Z,10.60
2018-05-08T12:09:15.257Z,10.30
2018-05-08T12:10:15.206Z,10.70
2018-05-08T12:11:15.213Z,10.30
2018-05-08T12:12:15.219Z,9.90
2018-05-08T12:13:15.225Z,10.40
2018-05-08T12:14:15.237Z,10.20
2018-05-08T12:15:15.243Z,8.50
2018-05-08T12:16:15.261Z,9.20
2018-05-08T12:17:15.261Z,9.70
2018-05-08T12:18:15.259Z,10.30
2018-05-08T12:19:15.265Z,11.10
2018-05-08T12:20:15.280Z,10.80
2018-05-08T12:21:15.282Z,9.50
2018-05-08T12:22:15.285Z,10.90
2018-05-08T12:23:15.291Z,10.90
2018-05-08T12:24:15.298Z,10.60
2018-05-08T12:25:15.303Z,10.70
2018-05-08T12:26:15.315Z,10.90
2018-05-08T12:27:15.328Z,10.90
2018-05-08T12:28:15.328Z,11.30
2018-05-08T12:29:15.335Z,10.90
2018-05-08T12:30:15.336Z,10.80
2018-05-08T12:31:15.344Z,10.30
2018-05-08T12:32:15.353Z,10.40
2018-05-08T12:33:15.354Z,11.00
2018-05-08T12:34:15.366Z,11.10
2018-05-08T12:35:15.372Z,11.50
2018-05-08T12:36:15.427Z,10.80
2018-05-08T12:37:15.382Z,10.90
2018-05-08T12:38:15.429Z,11.10
2018-05-08T12:39:15.397Z,11.40
2018-05-08T12:40:15.403Z,15.60
2018-05-08T12:41:15.421Z,16.10
2018-05-08T12:42:15.411Z,17.00
2018-05-08T12:43:15.417Z,20.00
2018-05-08T12:44:15.509Z,18.30
2018-05-08T12:45:15.429Z,17.40
2018-05-08T12:46:15.442Z,13.40
2018-05-08T12:47:15.448Z,14.20
2018-05-08T12:48:15.458Z,17.90
2018-05-08T12:49:15.461Z,21.70
2018-05-08T12:50:15.464Z,25.00
2018-05-08T12:51:15.468Z,17.20
2018-05-08T12:52:15.478Z,18.60
2018-05-08T12:53:15.483Z,17.20
2018-05-08T12:54:15.485Z,16.60
2018-05-08T12:55:15.493Z,20.20
2018-05-08T12:56:15.614Z,17.90
2018-05-08T12:57:15.506Z,15.60
2018-05-08T12:58:15.515Z,14.30
2018-05-08T12:59:15.523Z,17.50
2018-05-08T13:00:15.531Z,14.60
2018-05-08T13:01:15.535Z,13.60
2018-05-08T13:02:15.537Z,14.90